Hartsfield Jackson Atlanta International Airport Atlanta US
ICAO: KATL
IATA: ATL
Category: Large
Scheduled Services: Yes

Elevation: 1026 ft
TransAlt. 18000 ft.

Airport Communications:
ATLANTA APP:118.35
ATIS:119.65
CLNC DEL:118.1
ATLANTA DEP:125
GND:121.65
MACON RDO:116.9
SFA:30.697
ATLANTA TWR:119.1
UNICOM:122.95

KATL Zoom In..

If you have problems with the map follow the link
https://www.worldairports.se/pages/airport.php?
ICAO=KATL

Runways:

(A) RW 08L length 9000 ft width 150 ft
ILS 109.30 / hdg 95

(B) RW 08R length 10000 ft width 150 ft
ILS 109.90 / hdg 95

(C) RW 09L length 12390 ft width 150 ft
ILS 110.50 / hdg 95

(D) RW 09R length 9000 ft width 150 ft
ILS 108.90 / hdg 95

(E) RW 10 length 9000 ft width 150 ft
ILS 111.55 / hdg 95

(F) RW 26L length 10000 ft width 150 ft
ILS 108.70 / hdg 275

(G) RW 26R length 9000 ft width 150 ft
ILS 110.10 / hdg 275

(H) RW 27L length 9000 ft width 150 ft
ILS 108.50 / hdg 275

(I) RW 27R length 12390 ft width 150 ft
ILS 111.30 / hdg 275

(J) RW 28 length 9000 ft width 150 ft
ILS 111.75 / hdg 275

Location; KATL
Day. 16 / Time. 02.52 Zulu
* Altimeter: 30.12
* Temperature: 12° c. 53.6°f.
* Wind from: 150° Speed 05 kn.
Dewpoint: 08° c.
Visibility: 9 Statute Miles.
Clouds: Overcast 2800 ft.

KATL 160252Z 15005KT 9SM OVC028 12/08 A3012 RMK AO2 SLP201 T01220083 50001


Wind From 150°
Speed 05 kn.

 
 
jpsmedia worldairports.se 2019   terms of use